TimeMST,TemperatureF,Dew PointF,Humidity,Sea Level PressureIn,VisibilityMPH,Wind Direction,Wind SpeedMPH,Gust SpeedMPH,PrecipitationIn,Events,Conditions,WindDirDegrees,DateUTC
12:52 AM,-20.9,-25.1,81,30.65,10.0,Calm,Calm,-,N/A,,Clear,0,2013-01-05 07:52:00
1:52 AM,-20.0,-25.1,78,30.63,10.0,Calm,Calm,-,N/A,,Clear,0,2013-01-05 08:52:00
2:52 AM,-20.0,-25.1,78,30.63,10.0,Calm,Calm,-,N/A,,Clear,0,2013-01-05 09:52:00
3:52 AM,-27.4,-31.0,83,30.22,10.0,West,6.9,-,N/A,,Clear,270,2013-01-05 10:52:00
4:52 AM,-29.0,-35.0,73,30.77,10.0,Calm,Calm,-,N/A,,Clear,0,2013-01-05 11:52:00
5:52 AM,-29.9,-9999,N/A,30.87,10.0,ENE,3.5,-,N/A,,Clear,60,2013-01-05 12:52:00
6:52 AM,-29.0,-36.0,69,30.92,10.0,Calm,Calm,-,N/A,,Clear,0,2013-01-05 13:52:00
7:52 AM,-27.9,-34.1,73,30.96,10.0,West,3.5,-,N/A,,Clear,280,2013-01-05 14:52:00
8:05 AM,-23.8,-31.0,69,30.31,5.0,Calm,Calm,-,N/A,,Haze,0,2013-01-05 15:05:00
8:14 AM,-22.0,-27.4,76,30.32,10.0,Calm,Calm,-,N/A,,Mostly Cloudy,0,2013-01-05 15:14:00
8:52 AM,-18.4,-23.8,76,30.33,5.0,East,3.5,-,N/A,,Haze,90,2013-01-05 15:52:00
9:38 AM,-9.4,-13.0,84,30.34,7.0,Calm,Calm,-,N/A,,Scattered Clouds,0,2013-01-05 16:38:00
9:52 AM,-8.0,-9.9,91,30.87,6.0,Calm,Calm,-,N/A,,Clear,0,2013-01-05 16:52:00
10:52 AM,-5.8,-11.2,77,30.35,10.0,Calm,Calm,-,N/A,,Clear,0,2013-01-05 17:52:00
11:52 AM,3.0,-5.1,69,30.81,10.0,SSW,3.5,-,N/A,,Clear,210,2013-01-05 18:52:00
12:52 PM,7.0,-5.1,58,30.75,10.0,WSW,3.5,-,N/A,,Clear,240,2013-01-05 19:52:00
1:52 PM,10.9,-4.0,51,30.71,10.0,Calm,Calm,-,N/A,,Clear,0,2013-01-05 20:52:00
2:52 PM,14.0,-2.0,49,30.70,10.0,WNW,6.9,-,N/A,,Clear,290,2013-01-05 21:52:00
3:52 PM,10.9,-2.0,56,30.78,10.0,NW,5.8,-,N/A,,Clear,310,2013-01-05 22:52:00
4:52 PM,6.1,-5.1,60,30.85,10.0,North,4.6,-,N/A,,Clear,10,2013-01-05 23:52:00
5:52 PM,-0.0,-7.1,72,30.91,10.0,Calm,Calm,-,N/A,,Clear,0,2013-01-06 00:52:00
6:52 PM,-9.9,-13.0,86,30.99,10.0,WNW,4.6,-,N/A,,Clear,300,2013-01-06 01:52:00
7:52 PM,-11.9,-17.0,78,31.00,10.0,Calm,Calm,-,N/A,,Clear,0,2013-01-06 02:52:00
8:52 PM,-17.0,-20.9,82,30.99,10.0,West,4.6,-,N/A,,Clear,280,2013-01-06 03:52:00
9:52 PM,-22.0,-27.9,74,30.96,10.0,West,3.5,-,N/A,,Clear,280,2013-01-06 04:52:00
10:52 PM,-20.0,-26.0,74,30.93,10.0,Calm,Calm,-,N/A,,Clear,0,2013-01-06 05:52:00
11:52 PM,-22.0,-27.0,77,30.90,10.0,Calm,Calm,-,N/A,,Clear,0,2013-01-06 06:52:00